logo tempoitalia

Diretta Meteo Milano-Malpensa, Italiavenerdì 14 maggio ore 07:50

Mappa
Sereno 11 °C Sereno 24 Ore: T.min 6 T.max 22
Ponente Nord Km/h 7.4 Punto di rugiada: 11 °C Umidità: 100% Visibilità: 10 Km
Il sole sorge alle: 05:53 Il sole tramonta alle: 20:49
14 Maggio 2021 07:50 tempo osservato: Sereno Sereno 11 100 1008 vento: Nord N 7.4
14 Maggio 2021 07:20 tempo osservato: Sereno Sereno 9 100 1008 vento: Nord N 7.4
14 Maggio 2021 06:50 tempo osservato: Nebbia Nebbia 8 100 1007 vento: Nord N 9.3
14 Maggio 2021 06:20 tempo osservato: Nebbia Nebbia 6 100 1007 vento: Nord N 11.1
14 Maggio 2021 05:50 tempo osservato: Banco di nebbia Banco di nebbia 7 100 1007 vento: Nord N 7.4
14 Maggio 2021 05:20 tempo osservato: Sereno Sereno 7 100 1007 vento: Nord N 7.4
14 Maggio 2021 04:50 tempo osservato: Sereno Sereno 7 100 1007 vento: Nord N 3.7
14 Maggio 2021 04:20 tempo osservato: Banco di nebbia Banco di nebbia 7 100 1007 vento: Nord N/NE 7.4
14 Maggio 2021 03:50 tempo osservato: Banco di nebbia Banco di nebbia 7 100 1007 vento: Nord NE 7.4
14 Maggio 2021 03:20 tempo osservato: Banco di nebbia Banco di nebbia 8 100 1007 vento: Nord N 5.5
14 Maggio 2021 02:50 tempo osservato: Banco di nebbia Banco di nebbia 7 100 1007 vento: Nord N 5.5
14 Maggio 2021 02:20 tempo osservato: Banco di nebbia Banco di nebbia 8 100 1007 vento: Nord N 3.7
14 Maggio 2021 01:50 tempo osservato: Banco di nebbia Banco di nebbia 9 100 1007 vento: Nord N 5.5
14 Maggio 2021 01:20 tempo osservato: Banco di nebbia Banco di nebbia 11 87 1007 vento: Nord N 3.7
14 Maggio 2021 00:20 tempo osservato: Sereno Sereno 12 87 1006 vento: Nord O 7.4
13 Maggio 2021 23:50 tempo osservato: Sereno Sereno 12 93 1006 vento: Nord O 9.3
13 Maggio 2021 23:20 tempo osservato: Nuvoloso Nuvoloso 13 81 1006 vento: Nord NE 9.3
13 Maggio 2021 22:20 tempo osservato: Nuvoloso Nuvoloso 14 76 1006 vento: Nord E/SE 9.3
13 Maggio 2021 21:20 tempo osservato: Temporale Temporale 15 72 1005 vento: Nord N 5.5
13 Maggio 2021 20:50 tempo osservato: Pioggia Pioggia 15 72 1005 vento: Nord NE 13
13 Maggio 2021 20:20 tempo osservato: Poco Nuvoloso Poco Nuvoloso 17 55 1004 vento: Nord SE 9.3
13 Maggio 2021 19:50 tempo osservato: Sereno Sereno 17 55 1004 vento: Nord E/SE 11.1
13 Maggio 2021 19:20 tempo osservato: Sereno Sereno 18 51 1003 vento: Nord E 14.8
13 Maggio 2021 18:50 tempo osservato: Sereno Sereno 20 39 1003 vento: Nord E 13
13 Maggio 2021 18:20 tempo osservato: Sereno Sereno 20 37 1003 vento: Nord O/SO 11.1
13 Maggio 2021 17:20 tempo osservato: Poco Nuvoloso Poco Nuvoloso 20 37 1003 vento: Nord O/SO 20.3
13 Maggio 2021 16:50 tempo osservato: Poco Nuvoloso Poco Nuvoloso 22 32 1003 vento: Nord O 25.9
13 Maggio 2021 16:20 tempo osservato: Sereno Sereno 22 35 1002 vento: Nord O/NO 22.2
13 Maggio 2021 15:50 tempo osservato: Sereno Sereno 22 32 1003 vento: Nord O/SO 20.3
13 Maggio 2021 15:20 tempo osservato: Sereno Sereno 22 35 1003 vento: Nord O/SO 20.3
13 Maggio 2021 14:50 tempo osservato: Sereno Sereno 22 32 1003 vento: Nord O/SO 14.8
13 Maggio 2021 14:20 tempo osservato: Sereno Sereno 21 43 1003 vento: Nord O/SO 14.8
13 Maggio 2021 13:50 tempo osservato: Sereno Sereno 20 56 1003 vento: Nord O/SO 13
13 Maggio 2021 13:20 tempo osservato: Sereno Sereno 20 56 1004 vento: Nord O/SO 14.8
13 Maggio 2021 12:50 tempo osservato: Sereno Sereno 19 55 1004 vento: Nord O/SO 14.8
13 Maggio 2021 12:20 tempo osservato: Sereno Sereno 18 63 1004 vento: Nord SO 14.8
13 Maggio 2021 11:50 tempo osservato: Sereno Sereno 19 59 1005 vento: Nord SO 11.1
13 Maggio 2021 11:20 tempo osservato: Sereno Sereno 18 63 1005 vento: Nord O 7.4
13 Maggio 2021 10:50 tempo osservato: Sereno Sereno 17 67 1005 vento: Nord N 5.5
13 Maggio 2021 10:20 tempo osservato: Sereno Sereno 16 77 1005 vento: Nord NO 7.4
13 Maggio 2021 09:50 tempo osservato: Sereno Sereno 15 76 1005 vento: Nord N 5.5
13 Maggio 2021 09:20 tempo osservato: Sereno Sereno 14 82 1005 vento: Nord N 9.3
13 Maggio 2021 08:50 tempo osservato: Sereno Sereno 13 93 1005 vento: Nord N/NO 7.4